sensor_id;sensor_type;location;lat;lon;timestamp;P1;durP1;ratioP1;P2;durP2;ratioP2
5054;SDS011;13829;48.990;8.346;2022-07-29T00:01:49;5.22;;;4.35;;
5054;SDS011;13829;48.990;8.346;2022-07-29T00:04:17;5.55;;;4.68;;
5054;SDS011;13829;48.990;8.346;2022-07-29T00:06:46;9.05;;;5.15;;
5054;SDS011;13829;48.990;8.346;2022-07-29T00:09:12;5.38;;;4.47;;
5054;SDS011;13829;48.990;8.346;2022-07-29T00:11:39;8.70;;;5.22;;
5054;SDS011;13829;48.990;8.346;2022-07-29T00:14:06;4.93;;;4.28;;
5054;SDS011;13829;48.990;8.346;2022-07-29T00:16:34;5.13;;;4.53;;
5054;SDS011;13829;48.990;8.346;2022-07-29T00:19:01;5.78;;;4.65;;
5054;SDS011;13829;48.990;8.346;2022-07-29T00:21:29;5.95;;;5.07;;
5054;SDS011;13829;48.990;8.346;2022-07-29T00:23:57;6.13;;;4.55;;
5054;SDS011;13829;48.990;8.346;2022-07-29T00:26:24;5.63;;;5.13;;
5054;SDS011;13829;48.990;8.346;2022-07-29T00:28:56;4.97;;;4.50;;
5054;SDS011;13829;48.990;8.346;2022-07-29T00:31:24;5.40;;;4.90;;
5054;SDS011;13829;48.990;8.346;2022-07-29T00:33:51;5.28;;;4.78;;
5054;SDS011;13829;48.990;8.346;2022-07-29T00:36:18;5.80;;;5.07;;
5054;SDS011;13829;48.990;8.346;2022-07-29T00:38:45;5.35;;;4.63;;
5054;SDS011;13829;48.990;8.346;2022-07-29T00:41:14;6.93;;;4.85;;
5054;SDS011;13829;48.990;8.346;2022-07-29T00:43:42;6.05;;;4.82;;
5054;SDS011;13829;48.990;8.346;2022-07-29T00:46:10;5.25;;;4.75;;
5054;SDS011;13829;48.990;8.346;2022-07-29T00:48:37;5.60;;;5.20;;
5054;SDS011;13829;48.990;8.346;2022-07-29T00:51:05;5.75;;;4.82;;
5054;SDS011;13829;48.990;8.346;2022-07-29T00:53:35;6.85;;;4.68;;
5054;SDS011;13829;48.990;8.346;2022-07-29T00:56:02;5.88;;;5.28;;
5054;SDS011;13829;48.990;8.346;2022-07-29T00:58:31;6.47;;;5.35;;
5054;SDS011;13829;48.990;8.346;2022-07-29T01:00:58;5.70;;;5.15;;
5054;SDS011;13829;48.990;8.346;2022-07-29T01:03:25;6.90;;;4.90;;
5054;SDS011;13829;48.990;8.346;2022-07-29T01:05:52;5.70;;;5.10;;
5054;SDS011;13829;48.990;8.346;2022-07-29T01:08:20;5.90;;;4.93;;
5054;SDS011;13829;48.990;8.346;2022-07-29T01:10:49;5.38;;;4.97;;
5054;SDS011;13829;48.990;8.346;2022-07-29T01:13:18;6.60;;;5.43;;
5054;SDS011;13829;48.990;8.346;2022-07-29T01:15:49;7.75;;;5.35;;
5054;SDS011;13829;48.990;8.346;2022-07-29T01:18:24;5.90;;;5.30;;
5054;SDS011;13829;48.990;8.346;2022-07-29T01:21:07;5.28;;;4.60;;
5054;SDS011;13829;48.990;8.346;2022-07-29T01:24:11;5.78;;;5.18;;
5054;SDS011;13829;48.990;8.346;2022-07-29T01:27:02;5.30;;;4.78;;
5054;SDS011;13829;48.990;8.346;2022-07-29T01:29:49;6.80;;;5.25;;
5054;SDS011;13829;48.990;8.346;2022-07-29T01:32:24;6.60;;;5.13;;
5054;SDS011;13829;48.990;8.346;2022-07-29T01:34:56;5.78;;;4.85;;
5054;SDS011;13829;48.990;8.346;2022-07-29T01:37:33;9.45;;;4.90;;
5054;SDS011;13829;48.990;8.346;2022-07-29T01:40:11;5.20;;;4.80;;
5054;SDS011;13829;48.990;8.346;2022-07-29T01:42:47;6.63;;;5.35;;
5054;SDS011;13829;48.990;8.346;2022-07-29T01:45:21;7.82;;;5.72;;
5054;SDS011;13829;48.990;8.346;2022-07-29T01:47:55;5.72;;;5.00;;
5054;SDS011;13829;48.990;8.346;2022-07-29T01:50:29;6.32;;;5.15;;
5054;SDS011;13829;48.990;8.346;2022-07-29T01:53:02;5.97;;;5.22;;
5054;SDS011;13829;48.990;8.346;2022-07-29T01:55:36;6.82;;;5.90;;
5054;SDS011;13829;48.990;8.346;2022-07-29T01:58:09;6.30;;;5.70;;
5054;SDS011;13829;48.990;8.346;2022-07-29T02:00:41;6.18;;;5.50;;
5054;SDS011;13829;48.990;8.346;2022-07-29T02:03:12;16.98;;;6.95;;
5054;SDS011;13829;48.990;8.346;2022-07-29T02:05:43;15.07;;;6.53;;
5054;SDS011;13829;48.990;8.346;2022-07-29T02:08:14;13.65;;;6.05;;
5054;SDS011;13829;48.990;8.346;2022-07-29T02:10:45;13.52;;;6.10;;
5054;SDS011;13829;48.990;8.346;2022-07-29T02:13:13;8.48;;;6.13;;
5054;SDS011;13829;48.990;8.346;2022-07-29T02:15:46;7.57;;;5.32;;
5054;SDS011;13829;48.990;8.346;2022-07-29T02:18:16;7.25;;;5.75;;
5054;SDS011;13829;48.990;8.346;2022-07-29T02:20:46;7.97;;;5.80;;
5054;SDS011;13829;48.990;8.346;2022-07-29T02:23:19;7.00;;;6.30;;
5054;SDS011;13829;48.990;8.346;2022-07-29T02:25:49;7.45;;;6.07;;
5054;SDS011;13829;48.990;8.346;2022-07-29T02:28:21;6.68;;;5.93;;
5054;SDS011;13829;48.990;8.346;2022-07-29T02:30:53;6.70;;;6.00;;
5054;SDS011;13829;48.990;8.346;2022-07-29T02:33:26;7.43;;;6.00;;
5054;SDS011;13829;48.990;8.346;2022-07-29T02:35:57;6.03;;;5.53;;
5054;SDS011;13829;48.990;8.346;2022-07-29T02:38:27;8.60;;;6.13;;
5054;SDS011;13829;48.990;8.346;2022-07-29T02:41:15;6.50;;;5.85;;
5054;SDS011;13829;48.990;8.346;2022-07-29T02:43:46;7.00;;;5.90;;
5054;SDS011;13829;48.990;8.346;2022-07-29T02:46:24;6.50;;;5.90;;
5054;SDS011;13829;48.990;8.346;2022-07-29T02:48:58;7.07;;;6.38;;
5054;SDS011;13829;48.990;8.346;2022-07-29T02:51:38;7.70;;;5.78;;
5054;SDS011;13829;48.990;8.346;2022-07-29T02:54:14;6.68;;;6.07;;
5054;SDS011;13829;48.990;8.346;2022-07-29T02:56:50;6.35;;;5.68;;
5054;SDS011;13829;48.990;8.346;2022-07-29T02:59:22;8.52;;;6.28;;
5054;SDS011;13829;48.990;8.346;2022-07-29T03:01:55;5.97;;;5.38;;
5054;SDS011;13829;48.990;8.346;2022-07-29T03:04:26;6.38;;;5.60;;
5054;SDS011;13829;48.990;8.346;2022-07-29T03:06:58;6.30;;;5.70;;
5054;SDS011;13829;48.990;8.346;2022-07-29T03:09:27;6.88;;;6.28;;
5054;SDS011;13829;48.990;8.346;2022-07-29T03:11:55;7.68;;;6.32;;
5054;SDS011;13829;48.990;8.346;2022-07-29T03:14:24;6.82;;;6.15;;
5054;SDS011;13829;48.990;8.346;2022-07-29T03:16:52;6.30;;;5.70;;
5054;SDS011;13829;48.990;8.346;2022-07-29T03:19:20;6.55;;;5.95;;
5054;SDS011;13829;48.990;8.346;2022-07-29T03:21:48;7.03;;;5.75;;
5054;SDS011;13829;48.990;8.346;2022-07-29T03:24:29;6.90;;;6.10;;
5054;SDS011;13829;48.990;8.346;2022-07-29T03:26:59;6.50;;;5.93;;
5054;SDS011;13829;48.990;8.346;2022-07-29T03:29:26;6.63;;;6.03;;
5054;SDS011;13829;48.990;8.346;2022-07-29T03:31:54;6.93;;;6.22;;
5054;SDS011;13829;48.990;8.346;2022-07-29T03:34:23;7.57;;;6.80;;
5054;SDS011;13829;48.990;8.346;2022-07-29T03:36:50;7.80;;;6.68;;
5054;SDS011;13829;48.990;8.346;2022-07-29T03:39:18;6.82;;;6.20;;
5054;SDS011;13829;48.990;8.346;2022-07-29T03:41:52;7.55;;;5.88;;
5054;SDS011;13829;48.990;8.346;2022-07-29T03:44:23;10.57;;;6.28;;
5054;SDS011;13829;48.990;8.346;2022-07-29T03:46:53;12.15;;;5.80;;
5054;SDS011;13829;48.990;8.346;2022-07-29T03:49:28;9.02;;;7.18;;
5054;SDS011;13829;48.990;8.346;2022-07-29T03:51:58;6.85;;;6.22;;
5054;SDS011;13829;48.990;8.346;2022-07-29T03:54:26;8.82;;;6.32;;
5054;SDS011;13829;48.990;8.346;2022-07-29T03:56:53;7.45;;;6.47;;
5054;SDS011;13829;48.990;8.346;2022-07-29T03:59:25;7.45;;;6.22;;
5054;SDS011;13829;48.990;8.346;2022-07-29T04:01:53;7.85;;;7.05;;
5054;SDS011;13829;48.990;8.346;2022-07-29T04:04:24;8.65;;;6.95;;
5054;SDS011;13829;48.990;8.346;2022-07-29T04:06:53;9.32;;;6.95;;
5054;SDS011;13829;48.990;8.346;2022-07-29T04:09:20;7.70;;;7.00;;
5054;SDS011;13829;48.990;8.346;2022-07-29T04:11:47;6.80;;;6.20;;
5054;SDS011;13829;48.990;8.346;2022-07-29T04:14:14;8.10;;;7.07;;
5054;SDS011;13829;48.990;8.346;2022-07-29T04:16:41;7.93;;;7.20;;
5054;SDS011;13829;48.990;8.346;2022-07-29T04:19:08;7.85;;;7.10;;
5054;SDS011;13829;48.990;8.346;2022-07-29T04:21:36;8.88;;;6.75;;
5054;SDS011;13829;48.990;8.346;2022-07-29T04:24:06;7.63;;;6.93;;
5054;SDS011;13829;48.990;8.346;2022-07-29T04:26:34;8.40;;;7.45;;
5054;SDS011;13829;48.990;8.346;2022-07-29T04:29:01;8.45;;;6.90;;
5054;SDS011;13829;48.990;8.346;2022-07-29T04:31:28;11.40;;;7.28;;
5054;SDS011;13829;48.990;8.346;2022-07-29T04:33:55;9.07;;;7.10;;
5054;SDS011;13829;48.990;8.346;2022-07-29T04:36:22;7.60;;;6.93;;
5054;SDS011;13829;48.990;8.346;2022-07-29T04:38:49;8.05;;;7.32;;
5054;SDS011;13829;48.990;8.346;2022-07-29T04:41:18;7.20;;;6.50;;
5054;SDS011;13829;48.990;8.346;2022-07-29T04:43:45;9.15;;;7.18;;
5054;SDS011;13829;48.990;8.346;2022-07-29T04:46:12;9.15;;;7.78;;
5054;SDS011;13829;48.990;8.346;2022-07-29T04:48:39;7.57;;;6.88;;
5054;SDS011;13829;48.990;8.346;2022-07-29T04:51:06;8.02;;;7.25;;
5054;SDS011;13829;48.990;8.346;2022-07-29T04:53:33;8.68;;;7.53;;
5054;SDS011;13829;48.990;8.346;2022-07-29T04:56:00;8.52;;;7.43;;
5054;SDS011;13829;48.990;8.346;2022-07-29T04:58:30;8.82;;;7.82;;
5054;SDS011;13829;48.990;8.346;2022-07-29T05:00:57;9.82;;;7.75;;
5054;SDS011;13829;48.990;8.346;2022-07-29T05:03:24;7.85;;;7.07;;
5054;SDS011;13829;48.990;8.346;2022-07-29T05:05:51;7.88;;;7.05;;
5054;SDS011;13829;48.990;8.346;2022-07-29T05:08:18;8.32;;;7.53;;
5054;SDS011;13829;48.990;8.346;2022-07-29T05:10:46;7.68;;;6.97;;
5054;SDS011;13829;48.990;8.346;2022-07-29T05:13:13;9.15;;;6.70;;
5054;SDS011;13829;48.990;8.346;2022-07-29T05:15:42;8.30;;;7.55;;
5054;SDS011;13829;48.990;8.346;2022-07-29T05:18:09;8.05;;;7.25;;
5054;SDS011;13829;48.990;8.346;2022-07-29T05:20:36;7.13;;;6.45;;
5054;SDS011;13829;48.990;8.346;2022-07-29T05:23:03;7.93;;;6.78;;
5054;SDS011;13829;48.990;8.346;2022-07-29T05:25:30;8.25;;;7.03;;
5054;SDS011;13829;48.990;8.346;2022-07-29T05:27:57;7.80;;;6.90;;
5054;SDS011;13829;48.990;8.346;2022-07-29T05:30:25;8.35;;;6.25;;
5054;SDS011;13829;48.990;8.346;2022-07-29T05:32:53;9.25;;;6.20;;
5054;SDS011;13829;48.990;8.346;2022-07-29T05:35:20;7.75;;;5.65;;
5054;SDS011;13829;48.990;8.346;2022-07-29T05:37:48;8.23;;;6.07;;
5054;SDS011;13829;48.990;8.346;2022-07-29T05:40:15;9.25;;;5.60;;
5054;SDS011;13829;48.990;8.346;2022-07-29T05:42:42;6.35;;;5.63;;
5054;SDS011;13829;48.990;8.346;2022-07-29T05:45:10;5.72;;;5.22;;
5054;SDS011;13829;48.990;8.346;2022-07-29T05:47:37;9.57;;;5.38;;
5054;SDS011;13829;48.990;8.346;2022-07-29T05:50:06;6.72;;;5.15;;
5054;SDS011;13829;48.990;8.346;2022-07-29T05:52:34;6.47;;;5.03;;
5054;SDS011;13829;48.990;8.346;2022-07-29T05:55:01;6.13;;;5.45;;
5054;SDS011;13829;48.990;8.346;2022-07-29T05:57:30;6.70;;;5.63;;
5054;SDS011;13829;48.990;8.346;2022-07-29T05:59:58;5.93;;;5.35;;
5054;SDS011;13829;48.990;8.346;2022-07-29T06:02:25;6.82;;;5.78;;
5054;SDS011;13829;48.990;8.346;2022-07-29T06:04:52;6.95;;;5.53;;
5054;SDS011;13829;48.990;8.346;2022-07-29T06:07:21;6.40;;;5.07;;
5054;SDS011;13829;48.990;8.346;2022-07-29T06:09:48;6.82;;;6.05;;
5054;SDS011;13829;48.990;8.346;2022-07-29T06:12:15;6.20;;;5.20;;
5054;SDS011;13829;48.990;8.346;2022-07-29T06:14:42;6.20;;;5.45;;
5054;SDS011;13829;48.990;8.346;2022-07-29T06:17:09;6.60;;;5.65;;
5054;SDS011;13829;48.990;8.346;2022-07-29T06:19:37;8.88;;;5.53;;
5054;SDS011;13829;48.990;8.346;2022-07-29T06:22:04;7.35;;;6.10;;
5054;SDS011;13829;48.990;8.346;2022-07-29T06:24:33;7.35;;;6.22;;
5054;SDS011;13829;48.990;8.346;2022-07-29T06:27:00;6.18;;;5.60;;
5054;SDS011;13829;48.990;8.346;2022-07-29T06:29:27;12.40;;;6.90;;
5054;SDS011;13829;48.990;8.346;2022-07-29T06:31:54;11.13;;;7.00;;
5054;SDS011;13829;48.990;8.346;2022-07-29T06:34:21;8.32;;;6.28;;
5054;SDS011;13829;48.990;8.346;2022-07-29T06:36:48;7.65;;;6.78;;
5054;SDS011;13829;48.990;8.346;2022-07-29T06:39:17;8.88;;;6.65;;
5054;SDS011;13829;48.990;8.346;2022-07-29T06:41:47;8.98;;;5.90;;
5054;SDS011;13829;48.990;8.346;2022-07-29T06:44:16;7.30;;;5.47;;
5054;SDS011;13829;48.990;8.346;2022-07-29T06:46:44;7.20;;;5.32;;
5054;SDS011;13829;48.990;8.346;2022-07-29T06:49:14;5.85;;;5.13;;
5054;SDS011;13829;48.990;8.346;2022-07-29T06:51:41;7.35;;;5.13;;
5054;SDS011;13829;48.990;8.346;2022-07-29T06:54:08;5.97;;;5.05;;
5054;SDS011;13829;48.990;8.346;2022-07-29T06:56:35;8.40;;;5.18;;
5054;SDS011;13829;48.990;8.346;2022-07-29T06:59:08;7.78;;;4.88;;
5054;SDS011;13829;48.990;8.346;2022-07-29T07:01:37;7.82;;;4.90;;
5054;SDS011;13829;48.990;8.346;2022-07-29T07:04:07;6.68;;;5.47;;
5054;SDS011;13829;48.990;8.346;2022-07-29T07:06:36;7.43;;;4.93;;
5054;SDS011;13829;48.990;8.346;2022-07-29T07:09:03;12.32;;;5.53;;
5054;SDS011;13829;48.990;8.346;2022-07-29T07:11:30;6.15;;;4.80;;
5054;SDS011;13829;48.990;8.346;2022-07-29T07:13:57;5.10;;;3.88;;
5054;SDS011;13829;48.990;8.346;2022-07-29T07:16:26;5.88;;;4.20;;
5054;SDS011;13829;48.990;8.346;2022-07-29T07:18:53;5.05;;;4.10;;
5054;SDS011;13829;48.990;8.346;2022-07-29T07:21:20;6.35;;;4.07;;
5054;SDS011;13829;48.990;8.346;2022-07-29T07:23:46;4.90;;;4.05;;
5054;SDS011;13829;48.990;8.346;2022-07-29T07:26:13;5.82;;;3.90;;
5054;SDS011;13829;48.990;8.346;2022-07-29T07:28:40;5.78;;;3.30;;
5054;SDS011;13829;48.990;8.346;2022-07-29T07:31:07;4.93;;;3.75;;
5054;SDS011;13829;48.990;8.346;2022-07-29T07:33:36;7.82;;;4.10;;
5054;SDS011;13829;48.990;8.346;2022-07-29T07:36:03;5.57;;;3.83;;
5054;SDS011;13829;48.990;8.346;2022-07-29T07:38:30;5.60;;;3.35;;
5054;SDS011;13829;48.990;8.346;2022-07-29T07:40:57;5.40;;;3.42;;
5054;SDS011;13829;48.990;8.346;2022-07-29T07:43:25;6.95;;;4.13;;
5054;SDS011;13829;48.990;8.346;2022-07-29T07:45:52;7.22;;;4.03;;
5054;SDS011;13829;48.990;8.346;2022-07-29T07:48:19;5.13;;;3.72;;
5054;SDS011;13829;48.990;8.346;2022-07-29T07:50:47;4.45;;;3.78;;
5054;SDS011;13829;48.990;8.346;2022-07-29T07:53:15;5.65;;;3.80;;
5054;SDS011;13829;48.990;8.346;2022-07-29T07:55:42;5.53;;;3.72;;
5054;SDS011;13829;48.990;8.346;2022-07-29T07:58:10;5.55;;;3.75;;
5054;SDS011;13829;48.990;8.346;2022-07-29T08:00:37;9.95;;;4.20;;
5054;SDS011;13829;48.990;8.346;2022-07-29T08:03:04;6.15;;;3.72;;
5054;SDS011;13829;48.990;8.346;2022-07-29T08:05:31;4.82;;;3.38;;
5054;SDS011;13829;48.990;8.346;2022-07-29T08:07:59;4.63;;;3.85;;
5054;SDS011;13829;48.990;8.346;2022-07-29T08:10:26;5.68;;;3.67;;
5054;SDS011;13829;48.990;8.346;2022-07-29T08:13:11;6.88;;;3.63;;
5054;SDS011;13829;48.990;8.346;2022-07-29T08:15:38;5.30;;;3.88;;
5054;SDS011;13829;48.990;8.346;2022-07-29T08:18:08;4.55;;;3.45;;
5054;SDS011;13829;48.990;8.346;2022-07-29T08:20:35;4.28;;;3.22;;
5054;SDS011;13829;48.990;8.346;2022-07-29T08:23:06;7.72;;;3.80;;
5054;SDS011;13829;48.990;8.346;2022-07-29T08:25:35;5.00;;;4.05;;
5054;SDS011;13829;48.990;8.346;2022-07-29T08:28:03;5.43;;;3.55;;
5054;SDS011;13829;48.990;8.346;2022-07-29T08:30:30;4.13;;;2.83;;
5054;SDS011;13829;48.990;8.346;2022-07-29T08:32:58;5.88;;;3.55;;
5054;SDS011;13829;48.990;8.346;2022-07-29T08:35:25;6.78;;;3.63;;
5054;SDS011;13829;48.990;8.346;2022-07-29T08:37:53;6.93;;;3.28;;
5054;SDS011;13829;48.990;8.346;2022-07-29T08:40:23;12.02;;;3.85;;
5054;SDS011;13829;48.990;8.346;2022-07-29T08:42:50;7.22;;;3.60;;
5054;SDS011;13829;48.990;8.346;2022-07-29T08:45:17;6.93;;;3.50;;
5054;SDS011;13829;48.990;8.346;2022-07-29T08:47:46;8.65;;;3.50;;
5054;SDS011;13829;48.990;8.346;2022-07-29T08:50:13;5.93;;;3.67;;
5054;SDS011;13829;48.990;8.346;2022-07-29T08:52:40;3.80;;;3.42;;
5054;SDS011;13829;48.990;8.346;2022-07-29T08:55:08;8.95;;;3.50;;
5054;SDS011;13829;48.990;8.346;2022-07-29T08:57:38;7.32;;;3.45;;
5054;SDS011;13829;48.990;8.346;2022-07-29T09:00:06;5.68;;;3.28;;
5054;SDS011;13829;48.990;8.346;2022-07-29T09:02:36;6.70;;;3.45;;
5054;SDS011;13829;48.990;8.346;2022-07-29T09:05:07;5.32;;;3.10;;
5054;SDS011;13829;48.990;8.346;2022-07-29T09:07:36;4.30;;;2.90;;
5054;SDS011;13829;48.990;8.346;2022-07-29T09:10:07;3.72;;;3.30;;
5054;SDS011;13829;48.990;8.346;2022-07-29T09:12:35;3.95;;;3.00;;
5054;SDS011;13829;48.990;8.346;2022-07-29T09:15:05;3.75;;;2.92;;
5054;SDS011;13829;48.990;8.346;2022-07-29T09:17:43;4.07;;;2.80;;
5054;SDS011;13829;48.990;8.346;2022-07-29T09:20:12;3.35;;;3.05;;
5054;SDS011;13829;48.990;8.346;2022-07-29T09:22:41;6.57;;;3.22;;
5054;SDS011;13829;48.990;8.346;2022-07-29T09:25:10;6.30;;;3.28;;
5054;SDS011;13829;48.990;8.346;2022-07-29T09:27:40;8.35;;;3.88;;
5054;SDS011;13829;48.990;8.346;2022-07-29T09:30:07;4.97;;;3.38;;
5054;SDS011;13829;48.990;8.346;2022-07-29T09:35:24;3.38;;;2.85;;
5054;SDS011;13829;48.990;8.346;2022-07-29T09:37:52;9.63;;;3.70;;
5054;SDS011;13829;48.990;8.346;2022-07-29T09:40:20;7.10;;;3.17;;
5054;SDS011;13829;48.990;8.346;2022-07-29T09:42:50;5.38;;;3.20;;
5054;SDS011;13829;48.990;8.346;2022-07-29T09:45:27;8.20;;;3.05;;
5054;SDS011;13829;48.990;8.346;2022-07-29T09:47:56;3.47;;;3.17;;
5054;SDS011;13829;48.990;8.346;2022-07-29T09:50:34;6.25;;;3.13;;
5054;SDS011;13829;48.990;8.346;2022-07-29T09:53:04;10.02;;;3.55;;
5054;SDS011;13829;48.990;8.346;2022-07-29T09:55:31;6.18;;;3.45;;
5054;SDS011;13829;48.990;8.346;2022-07-29T10:00:46;6.50;;;3.35;;
5054;SDS011;13829;48.990;8.346;2022-07-29T10:03:15;5.85;;;4.03;;
5054;SDS011;13829;48.990;8.346;2022-07-29T10:05:43;5.85;;;3.38;;
5054;SDS011;13829;48.990;8.346;2022-07-29T10:08:12;4.35;;;3.42;;
5054;SDS011;13829;48.990;8.346;2022-07-29T10:10:39;7.20;;;3.85;;
5054;SDS011;13829;48.990;8.346;2022-07-29T10:13:09;6.88;;;3.33;;
5054;SDS011;13829;48.990;8.346;2022-07-29T10:15:41;6.38;;;3.75;;
5054;SDS011;13829;48.990;8.346;2022-07-29T10:18:11;5.30;;;3.13;;
5054;SDS011;13829;48.990;8.346;2022-07-29T10:20:42;4.72;;;3.25;;
5054;SDS011;13829;48.990;8.346;2022-07-29T10:23:09;6.22;;;3.65;;
5054;SDS011;13829;48.990;8.346;2022-07-29T10:25:36;5.90;;;3.17;;
5054;SDS011;13829;48.990;8.346;2022-07-29T10:28:04;4.47;;;3.08;;
5054;SDS011;13829;48.990;8.346;2022-07-29T10:30:32;6.07;;;3.22;;
5054;SDS011;13829;48.990;8.346;2022-07-29T10:33:08;6.72;;;3.42;;
5054;SDS011;13829;48.990;8.346;2022-07-29T10:35:56;5.13;;;3.17;;
5054;SDS011;13829;48.990;8.346;2022-07-29T10:38:43;7.00;;;2.85;;
5054;SDS011;13829;48.990;8.346;2022-07-29T10:44:16;8.07;;;3.08;;
5054;SDS011;13829;48.990;8.346;2022-07-29T10:46:46;5.07;;;3.20;;
5054;SDS011;13829;48.990;8.346;2022-07-29T10:49:15;4.25;;;3.08;;
5054;SDS011;13829;48.990;8.346;2022-07-29T10:51:56;5.43;;;3.60;;
5054;SDS011;13829;48.990;8.346;2022-07-29T10:54:40;4.80;;;3.35;;
5054;SDS011;13829;48.990;8.346;2022-07-29T10:57:15;3.03;;;2.78;;
5054;SDS011;13829;48.990;8.346;2022-07-29T10:59:50;5.55;;;3.00;;
5054;SDS011;13829;48.990;8.346;2022-07-29T11:02:54;4.60;;;3.08;;
5054;SDS011;13829;48.990;8.346;2022-07-29T11:05:24;3.50;;;2.53;;
5054;SDS011;13829;48.990;8.346;2022-07-29T11:10:51;5.95;;;3.13;;
5054;SDS011;13829;48.990;8.346;2022-07-29T11:13:50;5.80;;;3.20;;
5054;SDS011;13829;48.990;8.346;2022-07-29T11:16:20;4.65;;;2.75;;
5054;SDS011;13829;48.990;8.346;2022-07-29T11:21:50;5.22;;;2.80;;
5054;SDS011;13829;48.990;8.346;2022-07-29T11:24:19;4.85;;;2.95;;
5054;SDS011;13829;48.990;8.346;2022-07-29T11:29:40;5.90;;;3.28;;
5054;SDS011;13829;48.990;8.346;2022-07-29T11:32:17;6.38;;;2.92;;
5054;SDS011;13829;48.990;8.346;2022-07-29T11:34:45;7.03;;;3.05;;
5054;SDS011;13829;48.990;8.346;2022-07-29T11:37:22;9.15;;;2.95;;
5054;SDS011;13829;48.990;8.346;2022-07-29T11:40:09;5.07;;;2.90;;
5054;SDS011;13829;48.990;8.346;2022-07-29T11:42:43;4.65;;;2.78;;
5054;SDS011;13829;48.990;8.346;2022-07-29T11:45:16;5.22;;;2.65;;
5054;SDS011;13829;48.990;8.346;2022-07-29T11:47:50;3.55;;;2.42;;
5054;SDS011;13829;48.990;8.346;2022-07-29T11:53:10;4.40;;;2.70;;
5054;SDS011;13829;48.990;8.346;2022-07-29T11:55:40;4.50;;;2.83;;
5054;SDS011;13829;48.990;8.346;2022-07-29T11:58:08;5.22;;;2.70;;
5054;SDS011;13829;48.990;8.346;2022-07-29T12:00:36;3.60;;;2.63;;
5054;SDS011;13829;48.990;8.346;2022-07-29T12:03:05;7.00;;;2.75;;
5054;SDS011;13829;48.990;8.346;2022-07-29T12:05:35;2.85;;;2.50;;
5054;SDS011;13829;48.990;8.346;2022-07-29T12:08:11;3.53;;;2.38;;
5054;SDS011;13829;48.990;8.346;2022-07-29T12:10:41;3.45;;;2.45;;
5054;SDS011;13829;48.990;8.346;2022-07-29T12:13:09;4.85;;;2.50;;
5054;SDS011;13829;48.990;8.346;2022-07-29T12:15:37;5.97;;;2.65;;
5054;SDS011;13829;48.990;8.346;2022-07-29T12:18:11;3.65;;;2.28;;
5054;SDS011;13829;48.990;8.346;2022-07-29T12:20:40;3.45;;;2.55;;
5054;SDS011;13829;48.990;8.346;2022-07-29T12:23:08;3.22;;;2.65;;
5054;SDS011;13829;48.990;8.346;2022-07-29T12:25:38;4.57;;;2.30;;
5054;SDS011;13829;48.990;8.346;2022-07-29T12:28:08;5.88;;;2.42;;
5054;SDS011;13829;48.990;8.346;2022-07-29T12:30:39;4.43;;;2.28;;
5054;SDS011;13829;48.990;8.346;2022-07-29T12:33:14;4.47;;;2.40;;
5054;SDS011;13829;48.990;8.346;2022-07-29T12:35:46;5.53;;;2.60;;
5054;SDS011;13829;48.990;8.346;2022-07-29T12:38:18;5.82;;;2.60;;
5054;SDS011;13829;48.990;8.346;2022-07-29T12:40:46;3.50;;;2.30;;
5054;SDS011;13829;48.990;8.346;2022-07-29T12:43:16;7.07;;;2.40;;
5054;SDS011;13829;48.990;8.346;2022-07-29T12:45:45;5.25;;;2.30;;
5054;SDS011;13829;48.990;8.346;2022-07-29T12:48:15;6.55;;;2.80;;
5054;SDS011;13829;48.990;8.346;2022-07-29T12:50:54;3.60;;;2.20;;
5054;SDS011;13829;48.990;8.346;2022-07-29T12:53:25;5.55;;;2.25;;
5054;SDS011;13829;48.990;8.346;2022-07-29T12:55:54;7.32;;;2.72;;
5054;SDS011;13829;48.990;8.346;2022-07-29T12:58:27;5.15;;;2.38;;
5054;SDS011;13829;48.990;8.346;2022-07-29T13:01:03;3.22;;;2.15;;
5054;SDS011;13829;48.990;8.346;2022-07-29T13:03:47;5.50;;;2.22;;
5054;SDS011;13829;48.990;8.346;2022-07-29T13:06:28;4.50;;;2.38;;
5054;SDS011;13829;48.990;8.346;2022-07-29T13:09:05;3.92;;;2.13;;
5054;SDS011;13829;48.990;8.346;2022-07-29T13:11:37;4.28;;;2.60;;
5054;SDS011;13829;48.990;8.346;2022-07-29T13:14:06;4.00;;;2.25;;
5054;SDS011;13829;48.990;8.346;2022-07-29T13:16:36;4.70;;;2.20;;
5054;SDS011;13829;48.990;8.346;2022-07-29T13:19:32;3.00;;;2.47;;
5054;SDS011;13829;48.990;8.346;2022-07-29T13:22:01;4.88;;;2.22;;
5054;SDS011;13829;48.990;8.346;2022-07-29T13:24:30;6.53;;;2.13;;
5054;SDS011;13829;48.990;8.346;2022-07-29T13:26:57;4.25;;;2.17;;
5054;SDS011;13829;48.990;8.346;2022-07-29T13:29:24;3.05;;;2.00;;
5054;SDS011;13829;48.990;8.346;2022-07-29T13:31:52;3.58;;;2.03;;
5054;SDS011;13829;48.990;8.346;2022-07-29T13:34:19;3.22;;;2.15;;
5054;SDS011;13829;48.990;8.346;2022-07-29T13:36:47;5.40;;;2.63;;
5054;SDS011;13829;48.990;8.346;2022-07-29T13:39:14;3.95;;;2.10;;
5054;SDS011;13829;48.990;8.346;2022-07-29T13:41:42;5.53;;;2.00;;
5054;SDS011;13829;48.990;8.346;2022-07-29T13:44:09;5.30;;;2.10;;
5054;SDS011;13829;48.990;8.346;2022-07-29T13:46:36;3.03;;;2.20;;
5054;SDS011;13829;48.990;8.346;2022-07-29T13:49:03;24.58;;;3.85;;
5054;SDS011;13829;48.990;8.346;2022-07-29T13:51:30;1.98;;;1.75;;
5054;SDS011;13829;48.990;8.346;2022-07-29T13:53:57;5.18;;;2.00;;
5054;SDS011;13829;48.990;8.346;2022-07-29T13:56:24;2.92;;;1.75;;
5054;SDS011;13829;48.990;8.346;2022-07-29T13:58:52;3.88;;;1.90;;
5054;SDS011;13829;48.990;8.346;2022-07-29T14:01:19;6.53;;;2.08;;
5054;SDS011;13829;48.990;8.346;2022-07-29T14:03:46;6.63;;;2.20;;
5054;SDS011;13829;48.990;8.346;2022-07-29T14:06:13;3.20;;;2.20;;
5054;SDS011;13829;48.990;8.346;2022-07-29T14:08:41;4.32;;;2.00;;
5054;SDS011;13829;48.990;8.346;2022-07-29T14:11:08;6.22;;;2.15;;
5054;SDS011;13829;48.990;8.346;2022-07-29T14:13:35;5.72;;;2.28;;
5054;SDS011;13829;48.990;8.346;2022-07-29T14:16:03;3.67;;;2.10;;
5054;SDS011;13829;48.990;8.346;2022-07-29T14:18:32;8.68;;;2.78;;
5054;SDS011;13829;48.990;8.346;2022-07-29T14:20:59;8.23;;;2.55;;
5054;SDS011;13829;48.990;8.346;2022-07-29T14:23:26;7.20;;;2.00;;
5054;SDS011;13829;48.990;8.346;2022-07-29T14:25:53;5.47;;;2.10;;
5054;SDS011;13829;48.990;8.346;2022-07-29T14:28:20;33.70;;;5.07;;
5054;SDS011;13829;48.990;8.346;2022-07-29T14:30:47;5.15;;;2.20;;
5054;SDS011;13829;48.990;8.346;2022-07-29T14:33:15;3.35;;;1.90;;
5054;SDS011;13829;48.990;8.346;2022-07-29T14:35:42;2.67;;;1.67;;
5054;SDS011;13829;48.990;8.346;2022-07-29T14:38:10;5.28;;;1.80;;
5054;SDS011;13829;48.990;8.346;2022-07-29T14:40:37;3.47;;;1.83;;
5054;SDS011;13829;48.990;8.346;2022-07-29T14:43:04;4.50;;;2.20;;
5054;SDS011;13829;48.990;8.346;2022-07-29T14:45:31;5.82;;;2.40;;
5054;SDS011;13829;48.990;8.346;2022-07-29T14:47:58;4.93;;;1.80;;
5054;SDS011;13829;48.990;8.346;2022-07-29T14:50:27;4.22;;;1.85;;
5054;SDS011;13829;48.990;8.346;2022-07-29T14:52:54;2.80;;;1.83;;
5054;SDS011;13829;48.990;8.346;2022-07-29T14:55:21;6.38;;;2.13;;
5054;SDS011;13829;48.990;8.346;2022-07-29T14:57:48;3.30;;;2.13;;
5054;SDS011;13829;48.990;8.346;2022-07-29T15:00:16;4.85;;;2.22;;
5054;SDS011;13829;48.990;8.346;2022-07-29T15:02:44;5.43;;;1.80;;
5054;SDS011;13829;48.990;8.346;2022-07-29T15:05:11;3.08;;;1.67;;
5054;SDS011;13829;48.990;8.346;2022-07-29T15:07:39;7.40;;;2.10;;
5054;SDS011;13829;48.990;8.346;2022-07-29T15:10:06;3.00;;;1.92;;
5054;SDS011;13829;48.990;8.346;2022-07-29T15:12:34;2.30;;;1.73;;
5054;SDS011;13829;48.990;8.346;2022-07-29T15:15:01;2.70;;;2.05;;
5054;SDS011;13829;48.990;8.346;2022-07-29T15:17:28;2.47;;;1.75;;
5054;SDS011;13829;48.990;8.346;2022-07-29T15:19:55;3.10;;;1.80;;
5054;SDS011;13829;48.990;8.346;2022-07-29T15:22:22;2.63;;;1.58;;
5054;SDS011;13829;48.990;8.346;2022-07-29T15:24:51;2.70;;;1.70;;
5054;SDS011;13829;48.990;8.346;2022-07-29T15:27:18;14.00;;;2.95;;
5054;SDS011;13829;48.990;8.346;2022-07-29T15:29:44;4.30;;;1.80;;
5054;SDS011;13829;48.990;8.346;2022-07-29T15:32:11;7.40;;;1.60;;
5054;SDS011;13829;48.990;8.346;2022-07-29T15:34:39;3.85;;;1.80;;
5054;SDS011;13829;48.990;8.346;2022-07-29T15:37:06;3.35;;;1.77;;